Tiempo atmosférico en la estación meteorológica de Fonfría, Teruel (1262 m.)



Fecha
DESCASC
Temp. máxima en grados centígrados (hora)
DESCASC
Temp. mínima en grados centígrados (hora)
DESCASC
Temp. media en grados centígrados
DESCASC
Racha de viento máxima en m/sg (hora)
DESCASC
Velocidad máxima media en intervalos de 10 minutos(hora)
DESCASC
Precipitaciones diarias en mm
DESCASC
Precipitaciones de 00:00 a 06:00 en mm
DESCASC
Precipitaciones de 06:00 a 12:00 en mm
DESCASC
Precipitaciones de 12:00 a 18:00 en mm
DESCASC
Precipitaciones de 18:00 a 24:00 en mm
DESCASC
13-10-2019 24.4 (16:20) 10.8 (03:40) 17.6 11.11 (07:20) 8.61 (07:20) 0 0 0 0 0
12-10-2019 24.3 (14:10) 13.1 (07:50) 18.7 11.11 (02:30) 9.17 (02:30) 0 0 0 0 0
10-10-2019 19.2 (15:30) 7.6 (00:00) 13.4 8.61 (22:20) 7.22 (22:30) 0 0 0 0 0
09-10-2019 18.9 (14:50) 7.7 (00:00) 13.3 7.5 (11:40) 5.28 (03:30) 0 0 0 0 0
08-10-2019 25.7 (16:20) 11.4 (00:00) 18.6 7.78 (00:20) 5.56 (00:10) 0 0 0 0 0
07-10-2019 21.5 (15:50) 6.5 (00:00) 14 13.89 (14:00) 9.44 (15:20) 0 0 0 0 0
06-10-2019 19.7 (13:30) 10.2 (00:00) 15 8.33 (17:40) 5.83 (11:20) 0 0 0 0 0
05-10-2019 22.7 (16:20) 8.2 (05:30) 15.5 7.22 (12:30) 5.28 (12:30) 0 0 0 0 0
04-10-2019 23.2 (15:20) 9.4 (00:00) 16.3 7.5 (16:00) 5.28 (13:10) 0 0 0 0 0
03-10-2019 21.5 (16:40) 5.9 (00:00) 13.7 12.78 (00:30) 8.33 (00:30) 0 0 0 0 0
02-10-2019 15.8 (16:10) 8.8 (00:00) 12.3 14.72 (22:10) 9.17 (22:00) 0 0 0 0 0
01-10-2019 24.5 (13:20) 12 (00:00) 18.3 10.83 (15:30) 7.78 (16:40) 0 0 0 0 0
30-09-2019 27 (15:30) 12.6 (00:00) 19.8 6.67 (12:20) 5 (22:30) 0 0 0 0 0
29-09-2019 27.1 (16:30) 12.5 (00:00) 19.8 10.56 (14:30) 6.39 (08:50) 0 0 0 0 0
28-09-2019 25.4 (15:00) 10.7 (00:00) 18 6.67 (13:40) 5.83 (23:40) 0 0 0 0 0
27-09-2019 25.1 (16:50) 13.2 (00:00) 19.2 8.33 (14:20) 4.72 (12:30) 0 0 0 0 0
26-09-2019 25.3 (17:10) 10.2 (00:00) 17.7 7.5 (14:10) 5 (12:10) 0 0 0 0 0
25-09-2019 18.3 (16:50) 10.8 (00:00) 14.5 10.83 (14:50) 7.5 (11:20) 0 0 0 0 0
24-09-2019 25.1 (15:10) 12.2 (00:00) 18.7 15.83 (11:40) 10.28 (11:30) 0 0 0 0 0
23-09-2019 20.7 (16:30) 7.6 (00:00) 14.2 12.78 (22:50) 8.61 (23:00) 0 0 0 0 0
22-09-2019 20.4 (13:30) 10 (00:00) 15.2 12.22 (06:40) 8.06 (07:00) 0.8 0 0 0.6 0.2
21-09-2019 22.2 (16:30) 11.9 (00:00) 17.1 10 (02:10) 6.94 (08:00) 1 0.6 0 0 0.4
20-09-2019 23.6 (14:50) 12 (00:00) 17.8 11.11 (11:20) 7.78 (02:40) 0 0 0 0 0
19-09-2019 23 (13:40) 11.6 (00:00) 17.3 10.56 (19:30) 7.5 (19:30) 1.8 0 0 0 1.8
18-09-2019 22.2 (15:10) 11.7 (00:00) 17 6.67 (02:10) 5.83 (02:10) 0.2 0.2 0 0 0
17-09-2019 24.9 (16:30) 12.8 (00:00) 18.8 12.78 (22:00) 7.5 (23:30) 1.4 0 0 0 1.4
16-09-2019 21.6 (12:30) 13.8 (00:00) 17.7 6.39 (18:40) 4.44 (18:40) 2.8 0 0 1.8 1
15-09-2019 22 (17:30) 11.9 (00:00) 16.9 11.11 (17:40) 7.22 (16:40) 0 0 0 0 0

Gráficas

Temp. máximas Temp. mínimas Temp. medias Precipitaciones Rachas de viento máximas Velocidades máximas media en intervalos de 10 minutos

Datos horarios

Fecha y hora oficial Temperatura (ºC) Velocidad del viento (km/h) Dirección del viento Racha (km/h) Dirección de racha Precipitación (mm) Presión (hPa) Tendencia (hPa) Humedad (%)
2019-10-14 23:00:00 7.6 13 Noroeste 35 Oeste 0 -- -- 88
2019-10-14 22:00:00 6.8 18 Noroeste 51 Noroeste 0 -- -- 84
2019-10-14 21:00:00 12 9 Noroeste 22 Norte 0 -- -- 67
2019-10-14 20:00:00 12.9 9 Oeste 40 Oeste 0 -- -- 67
2019-10-14 19:00:00 14.2 14 Oeste 42 Oeste 0 -- -- 67
2019-10-14 18:00:00 14.5 12 Oeste 35 Oeste 0 -- -- 72
2019-10-14 17:00:00 13.9 17 Noroeste 35 Sudoeste 0.4 -- -- 79
2019-10-14 16:00:00 17.9 17 Sudoeste 41 Sudoeste 0 -- -- 58
2019-10-14 15:00:00 18.1 24 Sudoeste 50 Sudoeste 0 -- -- 63
2019-10-14 14:00:00 15.1 27 Sur 48 Sur 0 -- -- 74
2019-10-14 13:00:00 14 13 Sur 50 Sudeste 0.8 -- -- 82
2019-10-14 12:00:00 13.3 29 Sudoeste 59 Sudoeste 0.2 -- -- 81
2019-10-14 11:00:00 16.3 26 Sudoeste 44 Sudoeste 0 -- -- 59
2019-10-14 10:00:00 14.7 18 Sur 35 Sur 0 -- -- 72
2019-10-14 09:00:00 15.3 9 Sudeste 44 Sur 0 -- -- 62
2019-10-14 08:00:00 14.4 13 Sur 35 Sur 0 -- -- 72
2019-10-14 07:00:00 14.3 14 Sudeste 39 Sur 0 -- -- 72
2019-10-14 06:00:00 15.3 17 Sudeste 35 Sur 0 -- -- 65
2019-10-14 05:00:00 15.2 20 Sur 40 Sur 0 -- -- 67
2019-10-14 04:00:00 14.1 18 Sur 37 Sur 0 -- -- 78
2019-10-14 03:00:00 14.3 23 Sur 37 Sur 0 -- -- 75
2019-10-14 02:00:00 14.4 17 Sur 30 Sur 0 -- -- 75
2019-10-14 01:00:00 13.5 10 Sudoeste 27 Sur 0 -- -- 82
2019-10-14 00:00:00 14.3 15 Sur 24 Sur 0 -- -- 81
2019-10-13 23:00:00 15.1 13 Sur 24 Sur 0 -- -- 68
2019-10-13 22:00:00 16.3 11 Sur 18 Sur 0 -- -- 46
2019-10-13 21:00:00 16.1 5 Sudoeste 11 Sudoeste 0 -- -- 43
2019-10-13 20:00:00 18.3 3 Sudoeste 16 Oeste 0 -- -- 40
2019-10-13 19:00:00 20.3 9 Sudoeste 29 Sudoeste 0 -- -- 39
2019-10-13 18:00:00 21.8 11 Sudoeste 30 Sudoeste 0 -- -- 36
2019-10-13 17:00:00 22.9 14 Sudoeste 30 Sudoeste 0 -- -- 32
2019-10-13 16:00:00 23.8 15 Sudoeste 39 Sudoeste 0 -- -- 34
2019-10-13 15:00:00 22.2 18 Sudoeste 39 Sudoeste 0 -- -- 40
2019-10-13 14:00:00 23 12 Oeste 27 Oeste 0 -- -- 46
2019-10-13 13:00:00 22 11 Sudoeste 30 Sudoeste 0 -- -- 50
2019-10-13 12:00:00 20.9 7 Sudoeste 26 Sudoeste 0 -- -- 57
2019-10-13 11:00:00 18.3 16 Sudoeste 26 Sudoeste 0 -- -- 68
2019-10-13 10:00:00 14.8 18 Sudoeste 26 Sudoeste 0 -- -- 83
2019-10-13 09:00:00 12.7 21 Sudoeste 31 Sudoeste 0 -- -- 91
2019-10-13 08:00:00 11.5 23 Sudoeste 40 Sudoeste 0 -- -- 94
2019-10-13 07:00:00 12.2 28 Sudoeste 36 Sudoeste 0 -- -- 92
2019-10-13 06:00:00 11.2 20 Sudoeste 26 Sudoeste 0 -- -- 97
2019-10-13 05:00:00 11.2 5 Sudeste 16 Sudeste 0 -- -- 97
2019-10-13 04:00:00 11.3 7 Sudeste 13 Sudeste 0 -- -- 94
2019-10-13 03:00:00 11.9 4 Sur 10 Nordeste 0 -- -- 90
2019-10-13 02:00:00 13.3 7 Noroeste 31 Oeste 0 -- -- 90
2019-10-13 01:00:00 13.9 22 Sudoeste 36 Sudoeste 0 -- -- 87
2019-10-13 00:00:00 14.2 31 Sudoeste 37 Sudoeste 0 -- -- 86
2019-10-12 23:00:00 15.3 23 Sudoeste 30 Sudoeste 0 -- -- 79
2019-10-12 22:00:00 15.6 23 Sudoeste 33 Sudoeste 0 -- -- 80
2019-10-12 21:00:00 16.2 22 Sudoeste 29 Sur 0 -- -- 79
2019-10-12 20:00:00 17.6 14 Sudoeste 20 Sur 0 -- -- 71
2019-10-12 19:00:00 19.5 12 Sudoeste 30 Sudoeste 0 -- -- 61
2019-10-12 18:00:00 21.2 20 Sur 32 Sur 0 -- -- 49
2019-10-12 17:00:00 22.9 17 Sur 30 Sudoeste 0 -- -- 37
2019-10-12 16:00:00 23.6 18 Sur 32 Sudoeste 0 -- -- 31
2019-10-12 15:00:00 23.6 18 Sudoeste 30 Sur 0 -- -- 31
2019-10-12 14:00:00 23.6 16 Sudoeste 32 Sur 0 -- -- 32
2019-10-12 13:00:00 22.4 21 Sur 35 Sudoeste 0 -- -- 41
2019-10-12 12:00:00 19 22 Sudoeste 31 Sur 0 -- -- 44
2019-10-12 11:00:00 17.9 19 Sudoeste 31 Sudoeste 0 -- -- 55
2019-10-12 10:00:00 16.5 10 Sudoeste 27 Sudoeste 0 -- -- 65
2019-10-12 09:00:00 14.8 4 Oeste 28 Sudoeste 0 -- -- 75
2019-10-12 08:00:00 13.2 21 Sudoeste 28 Sudoeste 0 -- -- 83
2019-10-12 07:00:00 13.6 27 Sudoeste 36 Sudoeste 0 -- -- 84
2019-10-12 06:00:00 13.8 31 Sudoeste 40 Sudoeste 0 -- -- 85
2019-10-12 05:00:00 14.2 27 Sudoeste 35 Sudoeste 0 -- -- 82
2019-10-12 04:00:00 14.1 29 Sudoeste 40 Sudoeste 0 -- -- 86
2019-10-12 03:00:00 14.5 28 Sudoeste 40 Sudoeste 0 -- -- 86
2019-10-12 02:00:00 14.7 29 Sudoeste 37 Sudoeste 0 -- -- 86
2019-10-12 01:00:00 15.8 22 Sudoeste 28 Sudoeste 0 -- -- 79
2019-10-12 00:00:00 16.2 20 Sudoeste 29 Sudoeste 0 -- -- 78
2019-10-11 23:00:00 16.5 17 Sudoeste 24 Sudoeste 0 -- -- 75
2019-10-11 22:00:00 16.6 17 Sudoeste 23 Sudoeste 0 -- -- 74
2019-10-11 21:00:00 17.6 13 Sudoeste 20 Sur 0 -- -- 66
2019-10-11 20:00:00 18.8 13 Sur 20 Sur 0 -- -- 52
2019-10-11 19:00:00 21.2 12 Sur 31 Sudoeste 0 -- -- 43
2019-10-11 18:00:00 22.5 19 Sur 30 Sudoeste 0 -- -- 39
2019-10-11 17:00:00 24.4 18 Sur 28 Sur 0 -- -- 38
2019-10-11 16:00:00 23.9 17 Sur 27 Sudoeste 0 -- -- 41
2019-10-11 15:00:00 24.7 8 Oeste 22 Sudoeste 0 -- -- 44
2019-10-11 14:00:00 25 12 Oeste 26 Oeste 0 -- -- 43
2019-10-11 13:00:00 24.1 14 Sudoeste 22 Sudoeste 0 -- -- 44
2019-10-11 12:00:00 23 17 Sudoeste 24 Sudoeste 0 -- -- 49
2019-10-11 11:00:00 21.4 15 Sudoeste 26 Sudoeste 0 -- -- 55
2019-10-11 10:00:00 18.1 19 Sudoeste 28 Sudoeste 0 -- -- 69
2019-10-11 09:00:00 14.7 22 Sudoeste 27 Sudoeste 0 -- -- 80
2019-10-11 08:00:00 12.7 21 Sudoeste 29 Sudoeste 0 -- -- 87
2019-10-11 07:00:00 12.3 21 Sudoeste 28 Sudoeste 0 -- -- 90
2019-10-11 06:00:00 12.6 24 Sudoeste 28 Sudoeste 0 -- -- 89
2019-10-11 05:00:00 12.3 24 Sudoeste 29 Sudoeste 0 -- -- 91
2019-10-11 04:00:00 12.6 23 Sudoeste 27 Sudoeste 0 -- -- 90
2019-10-11 03:00:00 12.7 22 Sudoeste 27 Sudoeste 0 -- -- 91
2019-10-11 02:00:00 12.4 22 Sudoeste 24 Sudoeste 0 -- -- 92
2019-10-11 01:00:00 12.5 22 Sudoeste 25 Sudoeste 0 -- -- 91
2019-10-11 00:00:00 12.6 17 Sudoeste 23 Sudoeste 0 -- -- 89
2019-10-10 23:00:00 13.2 15 Sudoeste 31 Sur 0 -- -- 84
2019-10-10 22:00:00 14.1 18 Sur 28 Sudoeste 0 -- -- 76
2019-10-10 21:00:00 12.4 0 Calma 9 Sur 0 -- -- 66
2019-10-10 20:00:00 12.4 6 Sur 13 Sudeste 0 -- -- 66
2019-10-10 19:00:00 15.4 8 Este 18 Este 0 -- -- 58
2019-10-10 18:00:00 17.5 10 Este 18 Nordeste 0 -- -- 54
2019-10-10 17:00:00 17.9 12 Nordeste 20 Este 0 -- -- 53
2019-10-10 16:00:00 18.5 12 Este 19 Sudeste 0 -- -- 51
2019-10-10 15:00:00 18.3 4 Nordeste 14 Este 0 -- -- 53
2019-10-10 14:00:00 16.2 7 Este 15 Nordeste 0 -- -- 57
2019-10-10 13:00:00 17.2 12 Sudoeste 18 Sudoeste 0 -- -- 66
2019-10-10 12:00:00 13.7 10 Este 18 Sudoeste 0 -- -- 63
2019-10-10 11:00:00 13.6 10 Sudoeste 17 Sur 0 -- -- 77
2019-10-10 10:00:00 10.8 5 Este 13 Sudeste 0 -- -- 72
2019-10-10 09:00:00 10.3 9 Este 15 Este 0 -- -- 71
2019-10-10 08:00:00 9.7 3 Sur 7 Nordeste 0 -- -- 73
2019-10-10 07:00:00 9.6 4 Norte 6 Norte 0 -- -- 73
2019-10-10 06:00:00 9.8 0 Calma 4 Norte 0 -- -- 72
2019-10-10 05:00:00 9.3 3 Noroeste 10 Noroeste 0 -- -- 73
2019-10-10 04:00:00 9.2 7 Noroeste 12 Noroeste 0 -- -- 73
2019-10-10 03:00:00 9 9 Noroeste 13 Noroeste 0 -- -- 76
2019-10-10 02:00:00 8.8 9 Noroeste 21 Noroeste 0 -- -- 76
2019-10-10 01:00:00 8.4 12 Noroeste 21 Noroeste 0 -- -- 76
2019-10-10 00:00:00 7.7 12 Noroeste 21 Noroeste 0 -- -- 81
2019-10-09 23:00:00 8.3 13 Noroeste 21 Noroeste 0 -- -- 80
2019-10-09 22:00:00 9.2 11 Norte 18 Noroeste 0 -- -- 79
2019-10-09 21:00:00 10.5 9 Norte 17 Norte 0 -- -- 78
2019-10-09 20:00:00 11.9 3 Norte 15 Nordeste 0 -- -- 77
2019-10-09 19:00:00 14 10 Nordeste 19 Nordeste 0 -- -- 73
2019-10-09 18:00:00 16.2 6 Norte 22 Nordeste 0 -- -- 68
2019-10-09 17:00:00 16.5 13 Nordeste 27 Nordeste 0 -- -- 67
2019-10-09 16:00:00 17.1 15 Nordeste 25 Nordeste 0 -- -- 66
2019-10-09 15:00:00 18.8 13 Norte 24 Nordeste 0 -- -- 62
2019-10-09 14:00:00 18.6 11 Norte 18 Norte 0 -- -- 63
2019-10-09 13:00:00 17.8 9 Norte 18 Norte 0 -- -- 63
2019-10-09 12:00:00 17.2 11 Norte 27 Norte 0 -- -- 66
2019-10-09 11:00:00 18.4 9 Norte 15 Norte 0 -- -- 58
2019-10-09 10:00:00 16.4 4 Este 12 Noroeste 0 -- -- 68
2019-10-09 09:00:00 13.8 5 Noroeste 14 Noroeste 0 -- -- 77
2019-10-09 08:00:00 13.9 3 Este 12 Sudoeste 0 -- -- 66
2019-10-09 07:00:00 12.4 4 Noroeste 9 Sur 0 -- -- 70
2019-10-09 06:00:00 13.3 3 Sudoeste 10 Sudoeste 0 -- -- 67
2019-10-09 05:00:00 15.7 4 Noroeste 15 Oeste 0 -- -- 60
2019-10-09 04:00:00 14.8 3 Noroeste 22 Sudoeste 0 -- -- 62
2019-10-09 03:00:00 14.7 17 Sudoeste 21 Sudoeste 0 -- -- 61
2019-10-09 02:00:00 15.8 4 Oeste 14 Oeste 0 -- -- 57
2019-10-09 01:00:00 17.9 14 Oeste 23 Oeste 0 -- -- 52
2019-10-09 00:00:00 16.2 14 Sudoeste 22 Sudoeste 0 -- -- 58
2019-10-08 23:00:00 15.8 19 Sudoeste 23 Sudoeste 0 -- -- 52
2019-10-08 22:00:00 16.5 0 Calma 9 Sur 0 -- -- 46
2019-10-08 21:00:00 16.9 8 Sur 11 Sudeste 0 -- -- 45
2019-10-08 20:00:00 17 6 Sur 10 Este 0 -- -- 43
2019-10-08 19:00:00 20.8 7 Este 18 Nordeste 0 -- -- 36
2019-10-08 18:00:00 23.5 10 Este 19 Este 0 -- -- 33
2019-10-08 17:00:00 24.5 10 Nordeste 19 Nordeste 0 -- -- 33
2019-10-08 16:00:00 25 8 Oeste 18 Noroeste 0 -- -- 38
2019-10-08 15:00:00 25.2 7 Noroeste 15 Noroeste 0 -- -- 39
2019-10-08 14:00:00 24.7 5 Noroeste 14 Noroeste 0 -- -- 40
2019-10-08 13:00:00 23.4 4 Noroeste 14 Norte 0 -- -- 42
2019-10-08 12:00:00 22.5 3 Noroeste 10 Noroeste 0 -- -- 47
2019-10-08 11:00:00 19.9 5 Norte 14 Noroeste 0 -- -- 44
2019-10-08 10:00:00 18.1 4 Norte 7 Norte 0 -- -- 46
2019-10-08 09:00:00 15.1 3 Sudoeste 6 Oeste 0 -- -- 53
2019-10-08 08:00:00 11.6 6 Oeste 14 Sudoeste 0 -- -- 64
2019-10-08 07:00:00 11.8 2 Noroeste 4 Noroeste 0 -- -- 64
2019-10-08 06:00:00 12.7 3 Noroeste 8 Noroeste 0 -- -- 59
2019-10-08 05:00:00 13 4 Noroeste 11 Noroeste 0 -- -- 58
2019-10-08 04:00:00 13.7 6 Oeste 14 Oeste 0 -- -- 60
2019-10-08 03:00:00 12.9 4 Noroeste 19 Noroeste 0 -- -- 60
2019-10-08 02:00:00 13.3 9 Noroeste 21 Noroeste 0 -- -- 58
2019-10-08 01:00:00 14 11 Noroeste 28 Noroeste 0 -- -- 53
2019-10-08 00:00:00 14 21 Noroeste 28 Noroeste 0 -- -- 41
2019-10-07 23:00:00 13.9 15 Noroeste 21 Noroeste 0 -- -- 46
2019-10-07 22:00:00 15.1 16 Noroeste 36 Noroeste 0 -- -- 45
2019-10-07 21:00:00 15.1 19 Noroeste 32 Norte 0 -- -- 49
2019-10-07 20:00:00 16.5 24 Norte 39 Norte 0 -- -- 56
2019-10-07 19:00:00 18.1 24 Norte 36 Norte 0 -- -- 52
2019-10-07 18:00:00 19.4 26 Norte 41 Norte 0 -- -- 47
2019-10-07 17:00:00 20.2 26 Norte 41 Noroeste 0 -- -- 44
2019-10-07 16:00:00 20 27 Norte 46 Noroeste 0 -- -- 41
2019-10-07 15:00:00 20 32 Noroeste 49 Norte 0 -- -- 38
2019-10-07 14:00:00 19.8 27 Norte 50 Noroeste 0 -- -- 38
2019-10-07 13:00:00 18.8 26 Noroeste 44 Noroeste 0 -- -- 34
2019-10-07 12:00:00 16.7 25 Noroeste 45 Oeste 0 -- -- 37
2019-10-07 11:00:00 14.6 28 Noroeste 44 Noroeste 0 -- -- 37
2019-10-07 10:00:00 11.8 21 Noroeste 37 Noroeste 0 -- -- 56
2019-10-07 09:00:00 10.2 21 Noroeste 42 Noroeste 0 -- -- 68
2019-10-07 08:00:00 8.9 17 Noroeste 35 Noroeste 0 -- -- 75
2019-10-07 07:00:00 7.7 12 Norte 29 Noroeste 0 -- -- 97
2019-10-07 06:00:00 7.6 10 Norte 21 Noroeste 0 -- -- 94
2019-10-07 05:00:00 8.4 9 Noroeste 18 Noroeste 0 -- -- 93
2019-10-07 04:00:00 9 12 Norte 17 Noroeste 0 -- -- 89
2019-10-07 03:00:00 9.1 10 Norte 24 Norte 0 -- -- 90
2019-10-07 02:00:00 9.5 12 Norte 21 Norte 0 -- -- 94
2019-10-07 01:00:00 9.9 13 Norte 19 Norte 0 -- -- 94
2019-10-07 00:00:00 10.2 10 Norte 19 Norte 0 -- -- 92
2019-10-06 23:00:00 10.3 15 Norte 30 Norte 0 -- -- 92
2019-10-06 22:00:00 10.4 13 Noroeste 27 Norte 0 -- -- 89
2019-10-06 21:00:00 11.8 18 Norte 29 Norte 0 -- -- 83
2019-10-06 20:00:00 12.8 19 Norte 27 Norte 0 -- -- 81
2019-10-06 19:00:00 16 15 Norte 23 Norte 0 -- -- 67
2019-10-06 18:00:00 18.3 18 Noroeste 30 Noroeste 0 -- -- 50
2019-10-06 17:00:00 18.9 18 Noroeste 29 Noroeste 0 -- -- 52
2019-10-06 16:00:00 18.7 14 Noroeste 26 Noroeste 0 -- -- 53
2019-10-06 15:00:00 18.7 16 Noroeste 23 Noroeste 0 -- -- 54
2019-10-06 14:00:00 18.7 19 Noroeste 30 Noroeste 0 -- -- 54
2019-10-06 13:00:00 18.2 13 Noroeste 21 Noroeste 0 -- -- 57
2019-10-06 12:00:00 14.8 9 Norte 27 Noroeste 0 -- -- 68
2019-10-06 11:00:00 15.3 14 Noroeste 24 Noroeste 0 -- -- 63
2019-10-06 10:00:00 14.1 11 Norte 21 Noroeste 0 -- -- 68
2019-10-06 09:00:00 12.9 9 Noroeste 18 Noroeste 0 -- -- 72
2019-10-06 08:00:00 10.7 8 Oeste 10 Oeste 0 -- -- 77
2019-10-06 07:00:00 12.1 3 Oeste 12 Oeste 0 -- -- 69
2019-10-06 06:00:00 12.5 5 Oeste 10 Oeste 0 -- -- 66
2019-10-06 05:00:00 11.8 15 Sudoeste 20 Sudoeste 0 -- -- 72
2019-10-06 04:00:00 12.1 7 Oeste 11 Sudoeste 0 -- -- 70
2019-10-06 03:00:00 12.4 2 Oeste 8 Oeste 0 -- -- 66
2019-10-06 02:00:00 11.9 3 Oeste 9 Sudoeste 0 -- -- 68
2019-10-06 01:00:00 12 4 Oeste 7 Oeste 0 -- -- 72
2019-10-06 00:00:00 12.1 3 Sudoeste 6 Sudoeste 0 -- -- 74
2019-10-05 23:00:00 13.5 4 Sur 8 Sur 0 -- -- 70
2019-10-05 22:00:00 13.6 7 Sur 9 Sur 0 -- -- 66
2019-10-05 21:00:00 15.8 4 Este 12 Este 0 -- -- 56
2019-10-05 20:00:00 16.8 3 Sur 13 Este 0 -- -- 55
2019-10-05 19:00:00 19.4 10 Nordeste 17 Nordeste 0 -- -- 49
2019-10-05 18:00:00 22.1 8 Norte 24 Noroeste 0 -- -- 35
2019-10-05 17:00:00 22.5 11 Noroeste 23 Norte 0 -- -- 36
2019-10-05 16:00:00 22.6 12 Norte 21 Norte 0 -- -- 32
2019-10-05 15:00:00 21.8 14 Norte 23 Norte 0 -- -- 36
2019-10-05 14:00:00 20.6 14 Norte 25 Noroeste 0 -- -- 45
2019-10-05 13:00:00 19.5 16 Norte 26 Norte 0 -- -- 52
2019-10-05 12:00:00 18.9 14 Norte 21 Noroeste 0 -- -- 53
2019-10-05 11:00:00 17.5 13 Norte 17 Norte 0 -- -- 62
2019-10-05 10:00:00 15.7 8 Norte 14 Noroeste 0 -- -- 70
2019-10-05 09:00:00 13.4 8 Sudoeste 15 Sudoeste 0 -- -- 80
2019-10-05 08:00:00 11.2 3 Este 15 Oeste 0 -- -- 85
2019-10-05 07:00:00 11.1 0 Calma 14 Sudoeste 0 -- -- 88
2019-10-05 06:00:00 9.9 4 Sudoeste 16 Sudoeste 0 -- -- 99
2019-10-05 05:00:00 8.9 6 Oeste 15 Sudoeste 0 -- -- 98
2019-10-05 04:00:00 10 3 Noroeste 10 Oeste 0 -- -- 97
2019-10-05 03:00:00 9.2 9 Noroeste 12 Noroeste 0 -- -- 96
2019-10-05 02:00:00 10.4 3 Norte 10 Oeste 0 -- -- 91
2019-10-05 01:00:00 11 2 Oeste 12 Noroeste 0 -- -- 92
2019-10-05 00:00:00 11.3 7 Noroeste 14 Noroeste 0 -- -- 91
2019-10-04 23:00:00 13.4 8 Norte 17 Noroeste 0 -- -- 80
2019-10-04 22:00:00 13.6 0 Calma 8 Este 0 -- -- 76
2019-10-04 21:00:00 14.4 5 Sur 9 Sudoeste 0 -- -- 67
2019-10-04 20:00:00 16.3 7 Sur 10 Sur 0 -- -- 61
2019-10-04 19:00:00 19.5 6 Nordeste 15 Nordeste 0 -- -- 52
2019-10-04 18:00:00 21.3 8 Nordeste 18 Este 0 -- -- 45
2019-10-04 17:00:00 22.2 8 Nordeste 18 Este 0 -- -- 40
2019-10-04 16:00:00 22.6 10 Este 27 Nordeste 0 -- -- 40
2019-10-04 15:00:00 22.2 13 Norte 23 Norte 0 -- -- 35
2019-10-04 14:00:00 22.3 13 Noroeste 25 Norte 0 -- -- 36
2019-10-04 13:00:00 20.8 18 Norte 23 Norte 0 -- -- 39
2019-10-04 12:00:00 19.9 15 Norte 23 Noroeste 0 -- -- 39
2019-10-04 11:00:00 17.8 10 Norte 15 Norte 0 -- -- 48
2019-10-04 10:00:00 15.5 13 Norte 16 Noroeste 0 -- -- 55
2019-10-04 09:00:00 13.2 2 Noroeste 8 Oeste 0 -- -- 63
2019-10-04 08:00:00 10.3 5 Sudoeste 19 Sudoeste 0 -- -- 69
2019-10-04 07:00:00 10.7 12 Oeste 19 Sudoeste 0 -- -- 70
2019-10-04 06:00:00 9.4 0 Calma 15 Noroeste 0 -- -- 76
2019-10-04 05:00:00 10.1 3 Sudoeste 13 Noroeste 0 -- -- 75
2019-10-04 04:00:00 10.3 9 Oeste 17 Noroeste 0 -- -- 76
2019-10-04 03:00:00 11.3 10 Noroeste 19 Oeste 0 -- -- 71
2019-10-04 02:00:00 10.6 3 Sudeste 13 Este 0 -- -- 68
2019-10-04 01:00:00 11.5 10 Noroeste 16 Noroeste 0 -- -- 65
2019-10-04 00:00:00 11 7 Oeste 13 Noroeste 0 -- -- 67
2019-10-03 23:00:00 11.5 7 Noroeste 10 Noroeste 0 -- -- 64
2019-10-03 22:00:00 12.4 6 Noroeste 14 Noroeste 0 -- -- 59
2019-10-03 21:00:00 13.5 11 Noroeste 15 Noroeste 0 -- -- 59
2019-10-03 20:00:00 14.8 10 Noroeste 15 Noroeste 0 -- -- 51
2019-10-03 19:00:00 18.3 12 Norte 27 Noroeste 0 -- -- 41
2019-10-03 18:00:00 20.8 17 Noroeste 31 Norte 0 -- -- 27
2019-10-03 17:00:00 21.4 18 Norte 28 Noroeste 0 -- -- 26
2019-10-03 16:00:00 21 16 Noroeste 28 Norte 0 -- -- 24
2019-10-03 15:00:00 20.7 18 Noroeste 28 Norte 0 -- -- 27
2019-10-03 14:00:00 19.1 17 Norte 26 Noroeste 0 -- -- 30
2019-10-03 13:00:00 17.1 13 Noroeste 31 Noroeste 0 -- -- 43
2019-10-03 12:00:00 14.6 26 Noroeste 41 Noroeste 0 -- -- 56
2019-10-03 11:00:00 12.7 26 Noroeste 39 Noroeste 0 -- -- 63
2019-10-03 10:00:00 10.8 28 Noroeste 38 Noroeste 0 -- -- 70
2019-10-03 09:00:00 8.7 22 Noroeste 39 Noroeste 0 -- -- 77
2019-10-03 08:00:00 6.1 11 Oeste 24 Oeste 0 -- -- 95
2019-10-03 07:00:00 6.5 4 Oeste 13 Noroeste 0 -- -- 93
2019-10-03 06:00:00 7.1 9 Oeste 16 Noroeste 0 -- -- 90
2019-10-03 05:00:00 7.9 9 Noroeste 22 Noroeste 0 -- -- 91
2019-10-03 04:00:00 7.6 19 Noroeste 24 Noroeste 0 -- -- 91
2019-10-03 03:00:00 8.1 9 Norte 15 Norte 0 -- -- 91
2019-10-03 02:00:00 8.6 8 Noroeste 24 Noroeste 0 -- -- 89
2019-10-03 01:00:00 8.7 18 Noroeste 46 Noroeste 0 -- -- 88
2019-10-03 00:00:00 9.1 8 Noroeste 33 Norte 0 -- -- 89
2019-10-02 23:00:00 9.1 22 Norte 53 Norte 0 -- -- 89
2019-10-02 22:00:00 9.8 33 Norte 48 Norte 0 -- -- 85
2019-10-02 21:00:00 10.5 19 Norte 39 Norte 0 -- -- 78
2019-10-02 20:00:00 11.5 20 Norte 42 Norte 0 -- -- 72
2019-10-02 19:00:00 13 27 Norte 44 Norte 0 -- -- 65
2019-10-02 18:00:00 14.3 30 Norte 40 Norte 0 -- -- 61
2019-10-02 17:00:00 15.3 24 Norte 42 Norte 0 -- -- 55
2019-10-02 16:00:00 15.6 24 Norte 48 Norte 0 -- -- 56
2019-10-02 15:00:00 15.5 29 Norte 45 Norte 0 -- -- 56
2019-10-02 14:00:00 14 24 Norte 39 Noroeste 0 -- -- 61
2019-10-02 13:00:00 15.2 24 Noroeste 36 Noroeste 0 -- -- 56
2019-10-02 12:00:00 14.3 21 Noroeste 43 Noroeste 0 -- -- 59
2019-10-02 11:00:00 13.1 23 Noroeste 39 Noroeste 0 -- -- 67
2019-10-02 10:00:00 10.9 21 Noroeste 29 Noroeste 0 -- -- 80
2019-10-02 09:00:00 10.5 14 Noroeste 23 Noroeste 0 -- -- 88
2019-10-02 08:00:00 10.2 17 Norte 26 Norte 0 -- -- 93
2019-10-02 07:00:00 10.3 16 Norte 27 Norte 0 -- -- 93
2019-10-02 06:00:00 10.2 8 Noroeste 18 Noroeste 0 -- -- 95
2019-10-02 05:00:00 9.5 10 Noroeste 19 Noroeste 0 -- -- 95
2019-10-02 04:00:00 9 13 Noroeste 17 Noroeste 0 -- -- 94
2019-10-02 03:00:00 9.5 10 Noroeste 22 Noroeste 0 -- -- 92
2019-10-02 02:00:00 12.3 16 Noroeste 24 Noroeste 0 -- -- 74
2019-10-02 01:00:00 12.6 14 Noroeste 22 Noroeste 0 -- -- 76
2019-10-02 00:00:00 12 9 Noroeste 16 Oeste 0 -- -- 75
2019-10-01 23:00:00 13.6 12 Noroeste 20 Noroeste 0 -- -- 65
2019-10-01 22:00:00 14.4 12 Noroeste 20 Noroeste 0 -- -- 62
2019-10-01 21:00:00 15.8 14 Noroeste 32 Noroeste 0 -- -- 58
2019-10-01 20:00:00 17.5 18 Noroeste 29 Noroeste 0 -- -- 48
2019-10-01 19:00:00 19.5 21 Noroeste 36 Noroeste 0 -- -- 44
2019-10-01 18:00:00 21.2 21 Noroeste 36 Noroeste 0 -- -- 42
2019-10-01 17:00:00 21.8 26 Noroeste 39 Norte 0 -- -- 40
2019-10-01 16:00:00 23.3 24 Noroeste 39 Noroeste 0 -- -- 34
2019-10-01 15:00:00 23 24 Noroeste 37 Noroeste 0 -- -- 32
2019-10-01 14:00:00 23.7 22 Noroeste 39 Norte 0 -- -- 27
2019-10-01 13:00:00 24.4 17 Noroeste 37 Noroeste 0 -- -- 27
2019-10-01 12:00:00 22.5 17 Oeste 38 Oeste 0 -- -- 30
2019-10-01 11:00:00 21.1 20 Oeste 37 Oeste 0 -- -- 33
2019-10-01 10:00:00 20 16 Oeste 28 Oeste 0 -- -- 34
2019-10-01 09:00:00 17.2 19 Sudoeste 27 Oeste 0 -- -- 41
2019-10-01 08:00:00 15.2 18 Oeste 24 Oeste 0 -- -- 43
2019-10-01 07:00:00 14.8 20 Sudoeste 26 Oeste 0 -- -- 45
2019-10-01 06:00:00 16 18 Oeste 26 Oeste 0 -- -- 43
2019-10-01 05:00:00 16.5 17 Oeste 27 Oeste 0 -- -- 42
2019-10-01 04:00:00 17.3 19 Oeste 32 Oeste 0 -- -- 41
2019-10-01 03:00:00 17.7 21 Oeste 34 Oeste 0 -- -- 40
2019-10-01 02:00:00 18.1 21 Oeste 30 Oeste 0 -- -- 39
2019-10-01 01:00:00 17.5 18 Oeste 23 Sudoeste 0 -- -- 41
2019-10-01 00:00:00 16.8 13 Sudoeste 17 Oeste 0 -- -- 46
2019-09-30 23:00:00 15.8 14 Sudoeste 21 Sudoeste 0 -- -- 50
2019-09-30 22:00:00 17.3 7 Sudoeste 13 Sudoeste 0 -- -- 48
2019-09-30 21:00:00 16.9 8 Sur 9 Sur 0 -- -- 49
2019-09-30 20:00:00 18.5 4 Oeste 19 Nordeste 0 -- -- 45
2019-09-30 19:00:00 22.3 13 Este 24 Este 0 -- -- 36
2019-09-30 18:00:00 23.9 15 Este 23 Nordeste 0 -- -- 35
2019-09-30 17:00:00 24.6 13 Nordeste 21 Este 0 -- -- 34
2019-09-30 16:00:00 26.7 8 Oeste 22 Sudoeste 0 -- -- 22
2019-09-30 15:00:00 26.8 7 Oeste 23 Oeste 0 -- -- 22
2019-09-30 14:00:00 26.1 11 Oeste 23 Oeste 0 -- -- 27
2019-09-30 13:00:00 25.1 11 Sudoeste 24 Oeste 0 -- -- 28
2019-09-30 12:00:00 24.5 6 Sur 15 Sudoeste 0 -- -- 29
2019-09-30 11:00:00 22.5 6 Norte 12 Norte 0 -- -- 36
2019-09-30 10:00:00 20.7 2 Nordeste 14 Sudoeste 0 -- -- 41
2019-09-30 09:00:00 16.7 0 Calma 5 Sudoeste 0 -- -- 48
2019-09-30 08:00:00 13.3 4 Sur 6 Sudeste 0 -- -- 50
2019-09-30 07:00:00 13.4 0 Calma 11 Oeste 0 -- -- 44
2019-09-30 06:00:00 14.2 6 Oeste 10 Oeste 0 -- -- 41
2019-09-30 05:00:00 15.6 4 Oeste 5 Oeste 0 -- -- 39
2019-09-30 04:00:00 14.7 0 Calma 12 Sudoeste 0 -- -- 42
2019-09-30 03:00:00 15.5 7 Sur 13 Noroeste 0 -- -- 40
2019-09-30 02:00:00 15 4 Norte 19 Oeste 0 -- -- 43
2019-09-30 01:00:00 17.3 3 Noroeste 9 Noroeste 0 -- -- 37
2019-09-30 00:00:00 15.8 3 Norte 15 Noroeste 0 -- -- 40
2019-09-29 23:00:00 17.8 11 Noroeste 23 Oeste 0 -- -- 37
2019-09-29 22:00:00 19.2 12 Oeste 22 Oeste 0 -- -- 33
2019-09-29 21:00:00 18.9 10 Oeste 12 Oeste 0 -- -- 36
2019-09-29 20:00:00 20.7 10 Noroeste 17 Oeste 0 -- -- 34
2019-09-29 19:00:00 23.6 14 Noroeste 31 Oeste 0 -- -- 26
2019-09-29 18:00:00 26 13 Oeste 28 Noroeste 0 -- -- 24
2019-09-29 17:00:00 26.2 15 Noroeste 35 Noroeste 0 -- -- 27
2019-09-29 16:00:00 26.5 12 Noroeste 34 Noroeste 0 -- -- 27
2019-09-29 15:00:00 26.6 18 Noroeste 38 Noroeste 0 -- -- 25
2019-09-29 14:00:00 26.2 15 Noroeste 32 Oeste 0 -- -- 28
2019-09-29 13:00:00 25.1 12 Oeste 32 Oeste 0 -- -- 28
2019-09-29 12:00:00 23.2 18 Oeste 33 Oeste 0 -- -- 36
2019-09-29 11:00:00 22 20 Oeste 35 Oeste 0 -- -- 38
2019-09-29 10:00:00 20.8 16 Oeste 31 Oeste 0 -- -- 40
2019-09-29 09:00:00 18.6 22 Oeste 35 Oeste 0 -- -- 45
2019-09-29 08:00:00 15.2 19 Sudoeste 27 Oeste 0 -- -- 53
2019-09-29 07:00:00 15.8 20 Oeste 28 Oeste 0 -- -- 51
2019-09-29 06:00:00 15.7 21 Oeste 29 Oeste 0 -- -- 51
2019-09-29 05:00:00 14.7 21 Sudoeste 25 Sudoeste 0 -- -- 58
2019-09-29 04:00:00 14.1 20 Sudoeste 24 Sudoeste 0 -- -- 57
2019-09-29 03:00:00 15.2 17 Oeste 24 Sudoeste 0 -- -- 53
2019-09-29 02:00:00 12.7 17 Sudoeste 21 Sudoeste 0 -- -- 76
2019-09-29 01:00:00 14.2 17 Sudoeste 19 Sudoeste 0 -- -- 73
2019-09-29 00:00:00 14.5 17 Sudoeste 23 Sudoeste 0 -- -- 77
2019-09-28 23:00:00 15.5 4 Sur 13 Sudoeste 0 -- -- 75
2019-09-28 22:00:00 15.4 0 Calma 9 Sur 0 -- -- 74
2019-09-28 21:00:00 15.8 6 Sur 12 Sudeste 0 -- -- 69
2019-09-28 20:00:00 18.2 5 Sudeste 17 Este 0 -- -- 61
2019-09-28 19:00:00 20.3 12 Este 21 Este 0 -- -- 54
2019-09-28 18:00:00 22.5 12 Sudeste 22 Este 0 -- -- 46
2019-09-28 17:00:00 23.1 10 Nordeste 23 Nordeste 0 -- -- 44
2019-09-28 16:00:00 23.4 13 Este 23 Nordeste 0 -- -- 41
2019-09-28 15:00:00 25.4 8 Oeste 19 Este 0 -- -- 31
2019-09-28 14:00:00 23 7 Este 24 Este 0 -- -- 44
2019-09-28 13:00:00 22.7 9 Sudeste 21 Sudoeste 0 -- -- 45
2019-09-28 12:00:00 22.8 9 Sur 18 Sur 0 -- -- 41
2019-09-28 11:00:00 20.6 9 Sudeste 16 Este 0 -- -- 45
2019-09-28 10:00:00 18.1 4 Este 10 Este 0 -- -- 50
2019-09-28 09:00:00 15.1 4 Sudeste 7 Este 0 -- -- 52
2019-09-28 08:00:00 11.5 3 Sur 11 Sur 0 -- -- 54
2019-09-28 07:00:00 12.3 0 Calma 10 Sudoeste 0 -- -- 51
2019-09-28 06:00:00 12.1 5 Sudoeste 11 Sudoeste 0 -- -- 47
2019-09-28 05:00:00 13.3 2 Oeste 5 Oeste 0 -- -- 41
2019-09-28 04:00:00 13.2 0 Calma 6 Noroeste 0 -- -- 44
2019-09-28 03:00:00 13.7 2 Noroeste 11 Oeste 0 -- -- 44
2019-09-28 02:00:00 14.6 0 Calma 7 Oeste 0 -- -- 40
2019-09-28 01:00:00 14.7 4 Oeste 11 Oeste 0 -- -- 44
2019-09-28 00:00:00 15.6 8 Oeste 10 Oeste 0 -- -- 50
2019-09-27 23:00:00 15.1 3 Noroeste 9 Oeste 0 -- -- 53
2019-09-27 22:00:00 15.3 4 Sur 8 Sur 0 -- -- 52
2019-09-27 21:00:00 16.2 2 Noroeste 12 Norte 0 -- -- 51
2019-09-27 20:00:00 19.6 11 Norte 17 Noroeste 0 -- -- 44
2019-09-27 19:00:00 21.8 8 Norte 18 Sudoeste 0 -- -- 40
2019-09-27 18:00:00 23.9 5 Nordeste 22 Norte 0 -- -- 36
2019-09-27 17:00:00 24.2 13 Noroeste 23 Noroeste 0 -- -- 36
2019-09-27 16:00:00 23.8 14 Noroeste 30 Noroeste 0 -- -- 35
2019-09-27 15:00:00 23.5 14 Norte 30 Norte 0 -- -- 36
2019-09-27 14:00:00 23.8 13 Noroeste 27 Noroeste 0 -- -- 36
2019-09-27 13:00:00 23.3 13 Noroeste 28 Noroeste 0 -- -- 37
2019-09-27 12:00:00 21.2 15 Norte 22 Noroeste 0 -- -- 42
2019-09-27 11:00:00 21.6 14 Sudoeste 23 Sudoeste 0 -- -- 41
2019-09-27 10:00:00 19.1 4 Nordeste 7 Norte 0 -- -- 50
2019-09-27 09:00:00 16.4 0 Calma 12 Oeste 0 -- -- 60
2019-09-27 08:00:00 13.4 6 Oeste 16 Sudoeste 0 -- -- 68
2019-09-27 07:00:00 13.7 4 Oeste 14 Sudoeste 0 -- -- 65
2019-09-27 06:00:00 14.4 0 Calma 6 Oeste 0 -- -- 61
2019-09-27 05:00:00 13.7 0 Calma 19 Oeste 0 -- -- 67
2019-09-27 04:00:00 14 14 Sudoeste 19 Oeste 0 -- -- 66
2019-09-27 03:00:00 14.6 3 Sudoeste 12 Oeste 0 -- -- 63
2019-09-27 02:00:00 15.2 9 Oeste 16 Oeste 0 -- -- 61
2019-09-27 01:00:00 15.3 13 Oeste 15 Oeste 0 -- -- 60
2019-09-27 00:00:00 16.5 9 Oeste 18 Oeste 0 -- -- 56
2019-09-26 23:00:00 14.8 16 Sudoeste 20 Sudoeste 0 -- -- 63
2019-09-26 22:00:00 16.5 2 Nordeste 12 Sur 0 -- -- 57
2019-09-26 21:00:00 16.9 6 Sur 16 Sudeste 0 -- -- 56
2019-09-26 20:00:00 18.9 5 Sur 14 Sudeste 0 -- -- 50
2019-09-26 19:00:00 21.1 11 Nordeste 27 Nordeste 0 -- -- 45
2019-09-26 18:00:00 24.5 13 Oeste 26 Noroeste 0 -- -- 37
2019-09-26 17:00:00 24.6 8 Norte 21 Norte 0 -- -- 37
2019-09-26 16:00:00 24.1 5 Este 24 Oeste 0 -- -- 38
2019-09-26 15:00:00 24.6 8 Oeste 27 Oeste 0 -- -- 36
2019-09-26 14:00:00 23.5 10 Oeste 24 Sudoeste 0 -- -- 37
2019-09-26 13:00:00 22.5 11 Oeste 26 Sudoeste 0 -- -- 39
2019-09-26 12:00:00 20.6 15 Sudoeste 26 Sudoeste 0 -- -- 46
2019-09-26 11:00:00 17.8 16 Sudoeste 23 Sudoeste 0 -- -- 53
2019-09-26 10:00:00 16 14 Sudoeste 22 Sudoeste 0 -- -- 60
2019-09-26 09:00:00 14.5 10 Oeste 17 Sudoeste 0 -- -- 65
2019-09-26 08:00:00 11.9 5 Noroeste 16 Oeste 0 -- -- 69
2019-09-26 07:00:00 10.4 12 Sudoeste 17 Sudoeste 0 -- -- 78
2019-09-26 06:00:00 10.7 3 Sudoeste 6 Sudoeste 0 -- -- 75
2019-09-26 05:00:00 11.1 0 Calma 8 Norte 0 -- -- 76
2019-09-26 04:00:00 11.3 3 Oeste 19 Noroeste 0 -- -- 76
2019-09-26 03:00:00 10.6 4 Noroeste 9 Noroeste 0 -- -- 78
2019-09-26 02:00:00 11.4 4 Noroeste 12 Noroeste 0 -- -- 75
2019-09-26 01:00:00 11.5 5 Noroeste 12 Noroeste 0 -- -- 74
2019-09-26 00:00:00 11.8 9 Noroeste 12 Noroeste 0 -- -- 72
2019-09-25 23:00:00 12.3 5 Noroeste 8 Noroeste 0 -- -- 67
2019-09-25 22:00:00 12.2 5 Noroeste 17 Noroeste 0 -- -- 65
2019-09-25 21:00:00 14 12 Oeste 17 Oeste 0 -- -- 60
2019-09-25 20:00:00 14.7 9 Oeste 18 Noroeste 0 -- -- 57
2019-09-25 19:00:00 16.6 16 Noroeste 25 Noroeste 0 -- -- 51
2019-09-25 18:00:00 17.8 16 Noroeste 32 Noroeste 0 -- -- 43
2019-09-25 17:00:00 18.2 20 Noroeste 34 Norte 0 -- -- 43
2019-09-25 16:00:00 18.1 20 Noroeste 33 Noroeste 0 -- -- 43
2019-09-25 15:00:00 18.2 18 Noroeste 39 Norte 0 -- -- 46
2019-09-25 14:00:00 16.7 22 Noroeste 35 Noroeste 0 -- -- 50
2019-09-25 13:00:00 16.3 21 Noroeste 37 Noroeste 0 -- -- 52
2019-09-25 12:00:00 15.4 22 Norte 36 Noroeste 0 -- -- 56
2019-09-25 11:00:00 14 24 Noroeste 35 Noroeste 0 -- -- 63
2019-09-25 10:00:00 12 21 Noroeste 30 Noroeste 0 -- -- 79
2019-09-25 09:00:00 11.5 17 Noroeste 22 Noroeste 0 -- -- 89
2019-09-25 08:00:00 11.3 12 Noroeste 19 Noroeste 0 -- -- 90
2019-09-25 07:00:00 12.3 10 Noroeste 22 Noroeste 0 -- -- 84
2019-09-25 06:00:00 12.7 18 Noroeste 27 Noroeste 0 -- -- 82
2019-09-25 05:00:00 13.5 19 Noroeste 33 Noroeste 0 -- -- 83
2019-09-25 04:00:00 13.7 19 Noroeste 31 Noroeste 0 -- -- 85
2019-09-25 03:00:00 13.8 10 Noroeste 18 Norte 0 -- -- 89
2019-09-25 02:00:00 14.1 10 Noroeste 24 Noroeste 0 -- -- 85
2019-09-25 01:00:00 14.9 15 Noroeste 24 Noroeste 0 -- -- 83
2019-09-25 00:00:00 14.6 8 Oeste 14 Oeste 0 -- -- 81
2019-09-24 23:00:00 15.9 7 Noroeste 20 Noroeste 0 -- -- 74
2019-09-24 22:00:00 15.7 9 Noroeste 18 Noroeste 0 -- -- 76
2019-09-24 21:00:00 17.8 12 Noroeste 21 Noroeste 0 -- -- 63
2019-09-24 20:00:00 20 12 Noroeste 31 Oeste 0 -- -- 53
2019-09-24 19:00:00 21.7 17 Noroeste 34 Oeste 0 -- -- 48
2019-09-24 18:00:00 23.1 15 Noroeste 35 Noroeste 0 -- -- 44
2019-09-24 17:00:00 24.3 18 Noroeste 36 Noroeste 0 -- -- 40
2019-09-24 16:00:00 24.5 21 Oeste 42 Noroeste 0 -- -- 38
2019-09-24 15:00:00 24.9 20 Oeste 42 Oeste 0 -- -- 34
2019-09-24 14:00:00 23.8 18 Noroeste 41 Noroeste 0 -- -- 35
2019-09-24 13:00:00 22.7 20 Oeste 50 Oeste 0 -- -- 40
2019-09-24 12:00:00 19.9 35 Oeste 57 Oeste 0 -- -- 48
2019-09-24 11:00:00 17.7 36 Oeste 54 Oeste 0 -- -- 53
2019-09-24 10:00:00 16.2 31 Sudoeste 46 Sudoeste 0 -- -- 57
2019-09-24 09:00:00 14.6 32 Sudoeste 49 Sudoeste 0 -- -- 61
2019-09-24 08:00:00 13.4 34 Oeste 45 Oeste 0 -- -- 64
2019-09-24 07:00:00 13.6 30 Oeste 44 Oeste 0 -- -- 64
2019-09-24 06:00:00 13.3 28 Sudoeste 39 Sudoeste 0 -- -- 65
2019-09-24 05:00:00 14.1 26 Oeste 49 Oeste 0 -- -- 63
2019-09-24 04:00:00 13.1 19 Oeste 32 Oeste 0 -- -- 69
2019-09-24 03:00:00 13.4 18 Sudoeste 42 Sudoeste 0 -- -- 68
2019-09-24 02:00:00 14.2 32 Oeste 48 Oeste 0 -- -- 65
2019-09-24 01:00:00 15 33 Oeste 48 Oeste 0 -- -- 62
2019-09-24 00:00:00 14.9 29 Oeste 42 Oeste 0 -- -- 63
2019-09-23 23:00:00 15.6 31 Oeste 46 Oeste 0 -- -- 59
2019-09-23 22:00:00 14.8 9 Noroeste 18 Noroeste 0 -- -- 60
2019-09-23 21:00:00 14.8 9 Oeste 12 Oeste 0 -- -- 60
2019-09-23 20:00:00 15.6 0 Calma 14 Norte 0 -- -- 60
2019-09-23 19:00:00 18.3 12 Norte 24 Noroeste 0 -- -- 50
2019-09-23 18:00:00 19.4 13 Noroeste 27 Noroeste 0 -- -- 43
2019-09-23 17:00:00 20.3 8 Oeste 26 Sudoeste 0 -- -- 43
2019-09-23 16:00:00 20.2 11 Oeste 29 Sudoeste 0 -- -- 42
2019-09-23 15:00:00 19.7 9 Oeste 30 Sudoeste 0 -- -- 46
2019-09-23 14:00:00 18.8 12 Oeste 24 Oeste 0 -- -- 48
2019-09-23 13:00:00 17.7 13 Sudoeste 24 Oeste 0 -- -- 51
2019-09-23 12:00:00 17.1 14 Oeste 23 Oeste 0 -- -- 52
2019-09-23 11:00:00 15.4 11 Sudoeste 19 Sudoeste 0 -- -- 57
2019-09-23 10:00:00 14.3 4 Norte 10 Sudoeste 0 -- -- 69
2019-09-23 09:00:00 10.7 3 Noroeste 16 Sudoeste 0 -- -- 80
2019-09-23 08:00:00 7.9 13 Sudoeste 16 Sudoeste 0 -- -- 88
2019-09-23 07:00:00 7.9 8 Oeste 14 Sudoeste 0 -- -- 87
2019-09-23 06:00:00 8 4 Oeste 11 Oeste 0 -- -- 86
2019-09-23 05:00:00 8.2 7 Oeste 10 Oeste 0 -- -- 84
2019-09-23 04:00:00 9.1 8 Oeste 10 Oeste 0 -- -- 80
2019-09-23 03:00:00 9.1 9 Oeste 10 Oeste 0 -- -- 82
2019-09-23 02:00:00 9.7 3 Sudoeste 7 Oeste 0 -- -- 77
2019-09-23 01:00:00 9.4 4 Sur 7 Noroeste 0 -- -- 85
2019-09-23 00:00:00 10 3 Norte 14 Noroeste 0 -- -- 77
2019-09-22 23:00:00 11.1 8 Noroeste 15 Noroeste 0 -- -- 70
2019-09-22 22:00:00 11.9 10 Noroeste 17 Noroeste 0 -- -- 70
2019-09-22 21:00:00 12.3 13 Noroeste 17 Noroeste 0.2 -- -- 73
2019-09-22 20:00:00 13.7 9 Noroeste 28 Noroeste 0 -- -- 72
2019-09-22 19:00:00 15.5 19 Noroeste 27 Noroeste 0 -- -- 69
2019-09-22 18:00:00 16.8 18 Noroeste 30 Noroeste 0 -- -- 71
2019-09-22 17:00:00 15.4 14 Noroeste 24 Oeste 0 -- -- 83
2019-09-22 16:00:00 14.9 10 Noroeste 32 Noroeste 0.6 -- -- 94
2019-09-22 15:00:00 16.1 20 Noroeste 35 Noroeste 0 -- -- 74
2019-09-22 14:00:00 19.7 12 Norte 27 Oeste 0 -- -- 62
2019-09-22 13:00:00 17.6 13 Noroeste 36 Noroeste 0 -- -- 69
2019-09-22 12:00:00 17.8 18 Oeste 36 Sudoeste 0 -- -- 67
2019-09-22 11:00:00 18.2 19 Oeste 37 Sudoeste 0 -- -- 67
2019-09-22 10:00:00 17.1 19 Sudoeste 38 Oeste 0 -- -- 73
2019-09-22 09:00:00 15.3 18 Sudoeste 28 Sudoeste 0 -- -- 77
2019-09-22 08:00:00 13 12 Sudoeste 32 Oeste 0 -- -- 86
2019-09-22 07:00:00 13.9 29 Oeste 44 Oeste 0 -- -- 82
2019-09-22 06:00:00 13.9 19 Oeste 37 Oeste 0 -- -- 84
2019-09-22 05:00:00 14.1 22 Sudoeste 36 Sudoeste 0 -- -- 82
2019-09-22 04:00:00 14 17 Sudoeste 42 Sudoeste 0 -- -- 85
2019-09-22 03:00:00 14.3 26 Sudoeste 37 Sudoeste 0 -- -- 85
2019-09-22 02:00:00 15.2 23 Sudoeste 38 Sudoeste 0 -- -- 80
2019-09-22 01:00:00 14.5 16 Sudoeste 29 Sudoeste 0 -- -- 85
2019-09-22 00:00:00 14.5 18 Sudoeste 25 Sudoeste 0 -- -- 82
2019-09-21 23:00:00 14.3 15 Sudoeste 19 Sudoeste 0 -- -- 81
2019-09-21 22:00:00 14.3 10 Sudoeste 17 Sudoeste 0.4 -- -- 83
2019-09-21 21:00:00 15.7 8 Oeste 13 Noroeste 0 -- -- 80
2019-09-21 20:00:00 18.3 6 Oeste 22 Noroeste 0 -- -- 59
2019-09-21 19:00:00 19.2 10 Noroeste 20 Oeste 0 -- -- 55
2019-09-21 18:00:00 20.1 10 Oeste 28 Sudoeste 0 -- -- 52
2019-09-21 17:00:00 20.3 18 Sudoeste 32 Sudoeste 0 -- -- 51
2019-09-21 16:00:00 19.9 13 Oeste 32 Sudoeste 0 -- -- 55
2019-09-21 15:00:00 20 14 Sudoeste 31 Oeste 0 -- -- 56
2019-09-21 14:00:00 20.6 22 Sudoeste 35 Sudoeste 0 -- -- 55
2019-09-21 13:00:00 20.2 18 Sudoeste 28 Oeste 0 -- -- 57
2019-09-21 12:00:00 19.3 19 Sudoeste 31 Sudoeste 0 -- -- 59
2019-09-21 11:00:00 17.7 18 Oeste 28 Sudoeste 0 -- -- 68
2019-09-21 10:00:00 15.7 19 Sudoeste 29 Sudoeste 0 -- -- 78
2019-09-21 09:00:00 12 20 Sudoeste 31 Sudoeste 0 -- -- 92
2019-09-21 08:00:00 12.1 25 Sudoeste 32 Sudoeste 0 -- -- 89
2019-09-21 07:00:00 12.1 16 Sudoeste 33 Sur 0 -- -- 91
2019-09-21 06:00:00 12.5 22 Sudoeste 33 Sur 0.6 -- -- 90
2019-09-21 05:00:00 13 14 Sudoeste 31 Sudoeste 0 -- -- 88
2019-09-21 04:00:00 12.3 23 Sudoeste 30 Sudoeste 0 -- -- 92
2019-09-21 03:00:00 13.3 10 Sudeste 36 Sur 0 -- -- 88
2019-09-21 02:00:00 15 15 Sur 25 Sur 0 -- -- 88
2019-09-21 01:00:00 14.9 10 Sur 20 Sur 0 -- -- 86
2019-09-21 00:00:00 14.8 6 Sur 13 Sudoeste 0 -- -- 85
2019-09-20 23:00:00 14.9 8 Sur 24 Sur 0 -- -- 84
2019-09-20 22:00:00 15.4 14 Sur 25 Sur 0 -- -- 83
2019-09-20 21:00:00 16.3 13 Sur 27 Sur 0 -- -- 77
2019-09-20 20:00:00 17.5 12 Sur 24 Sur 0 -- -- 74
2019-09-20 19:00:00 19.1 10 Sur 34 Sudoeste 0 -- -- 67
2019-09-20 18:00:00 20.6 22 Sur 40 Sur 0 -- -- 58
2019-09-20 17:00:00 22.4 23 Sur 33 Sur 0 -- -- 53
2019-09-20 16:00:00 22.8 13 Sur 30 Sur 0 -- -- 49
2019-09-20 15:00:00 23.1 13 Sur 27 Sur 0 -- -- 48
2019-09-20 14:00:00 21.7 14 Sudeste 26 Sudeste 0 -- -- 54
2019-09-20 13:00:00 20.8 14 Sur 35 Sudoeste 0 -- -- 56
2019-09-20 12:00:00 19.4 23 Sudoeste 40 Sudoeste 0 -- -- 69
2019-09-20 11:00:00 18.8 25 Sudoeste 35 Sudoeste 0 -- -- 67
2019-09-20 10:00:00 17.6 20 Sudoeste 28 Sur 0 -- -- 70
2019-09-20 09:00:00 14.5 17 Sudoeste 23 Sudoeste 0 -- -- 83
2019-09-20 08:00:00 12.3 3 Sur 13 Sudoeste 0 -- -- 90
2019-09-20 07:00:00 12.6 3 Sudoeste 14 Sudoeste 0 -- -- 90
2019-09-20 06:00:00 13.3 17 Sudoeste 28 Sudoeste 0 -- -- 90
2019-09-20 05:00:00 13.2 22 Sudoeste 27 Sudoeste 0 -- -- 89
2019-09-20 04:00:00 13.5 20 Sudoeste 28 Sudoeste 0 -- -- 85
2019-09-20 03:00:00 14.4 25 Sudoeste 31 Sudoeste 0 -- -- 85
2019-09-20 02:00:00 15.3 24 Sudoeste 29 Sudoeste 0 -- -- 80
2019-09-20 01:00:00 14.6 25 Sudoeste 31 Sudoeste 0 -- -- 80
2019-09-20 00:00:00 15.3 26 Sudoeste 31 Sudoeste 0 -- -- 76
2019-09-19 23:00:00 15.1 23 Sur 35 Sur 0 -- -- 79
2019-09-19 22:00:00 15.4 23 Sudoeste 30 Sudoeste 0 -- -- 79
2019-09-19 21:00:00 14.7 22 Sur 28 Sur 0 -- -- 78
2019-09-19 20:00:00 14.4 21 Sur 38 Sur 1.8 -- -- 85
2019-09-19 19:00:00 19.7 18 Este 36 Este 0 -- -- 63
2019-09-19 18:00:00 21.3 14 Nordeste 28 Este 0 -- -- 59
2019-09-19 17:00:00 21.6 12 Este 23 Nordeste 0 -- -- 57
2019-09-19 16:00:00 21.8 12 Nordeste 19 Este 0 -- -- 56
2019-09-19 15:00:00 21 12 Nordeste 22 Nordeste 0 -- -- 61
2019-09-19 14:00:00 21.3 14 Nordeste 21 Nordeste 0 -- -- 58
2019-09-19 13:00:00 22.2 5 Sudoeste 23 Sur 0 -- -- 52
2019-09-19 12:00:00 22.1 13 Sudoeste 25 Sur 0 -- -- 53
2019-09-19 11:00:00 20.7 14 Sur 22 Sur 0 -- -- 55
2019-09-19 10:00:00 17.8 11 Sudeste 15 Este 0 -- -- 70
2019-09-19 09:00:00 16 5 Sudeste 11 Sudeste 0 -- -- 77
2019-09-19 08:00:00 12.4 8 Sur 11 Sudeste 0 -- -- 90
2019-09-19 07:00:00 12.2 2 Sur 8 Sur 0 -- -- 91
2019-09-19 06:00:00 11.9 5 Sur 8 Sur 0 -- -- 92
2019-09-19 05:00:00 12.5 6 Sur 9 Sudeste 0 -- -- 86
2019-09-19 04:00:00 13 6 Sur 9 Sur 0 -- -- 79
2019-09-19 03:00:00 12.7 5 Sur 12 Sudoeste 0 -- -- 80
2019-09-19 02:00:00 12.9 8 Sudoeste 12 Sudoeste 0 -- -- 79
2019-09-19 01:00:00 13.5 6 Sudoeste 16 Sudoeste 0 -- -- 80
2019-09-19 00:00:00 14.2 3 Sudeste 19 Sudoeste 0 -- -- 74
2019-09-18 23:00:00 14.6 16 Sudoeste 21 Sudoeste 0 -- -- 73
2019-09-18 22:00:00 15.6 3 Oeste 7 Sur 0 -- -- 72
2019-09-18 21:00:00 16 3 Sur 8 Sur 0 -- -- 62
2019-09-18 20:00:00 17.7 3 Sur 13 Sudeste 0 -- -- 61
2019-09-18 19:00:00 18.9 9 Sudeste 24 Sudeste 0 -- -- 59
2019-09-18 18:00:00 20.8 10 Nordeste 17 Nordeste 0 -- -- 52
2019-09-18 17:00:00 21.4 9 Noroeste 16 Norte 0 -- -- 49
2019-09-18 16:00:00 22.1 8 Norte 20 Noroeste 0 -- -- 46
2019-09-18 15:00:00 21.9 14 Norte 20 Norte 0 -- -- 45
2019-09-18 14:00:00 21.7 9 Norte 20 Norte 0 -- -- 47
2019-09-18 13:00:00 21.8 9 Oeste 19 Noroeste 0 -- -- 46
2019-09-18 12:00:00 20.1 11 Norte 22 Sudoeste 0 -- -- 59
2019-09-18 11:00:00 20.6 5 Sur 12 Este 0 -- -- 54
2019-09-18 10:00:00 17.7 10 Sudeste 21 Sur 0 -- -- 63
2019-09-18 09:00:00 14.5 2 Oeste 10 Oeste 0 -- -- 68
2019-09-18 08:00:00 12.2 4 Sudoeste 10 Sudoeste 0 -- -- 75
2019-09-18 07:00:00 12.3 7 Sudoeste 15 Sudoeste 0 -- -- 74
2019-09-18 06:00:00 12.5 4 Sudoeste 9 Sudoeste 0 -- -- 75
2019-09-18 05:00:00 12.1 6 Oeste 8 Oeste 0 -- -- 81
2019-09-18 04:00:00 12.2 3 Oeste 9 Sudoeste 0 -- -- 79
2019-09-18 03:00:00 12.8 7 Oeste 24 Sudoeste 0 -- -- 75
2019-09-18 02:00:00 12.5 15 Sudoeste 22 Sudoeste 0 -- -- 81
2019-09-18 01:00:00 14.1 4 Sudeste 23 Oeste 0.2 -- -- 76
2019-09-18 00:00:00 13 18 Sudoeste 46 Sudoeste 1.2 -- -- 90
2019-09-17 23:00:00 13.7 17 Sudoeste 41 Oeste 0.2 -- -- 86
2019-09-17 22:00:00 17.5 20 Oeste 46 Oeste 0 -- -- 65
2019-09-17 21:00:00 18.3 6 Sudeste 13 Sudeste 0 -- -- 59
2019-09-15 18:00:00 21.6 23 Este 40 Este 0 -- -- 58
2019-09-15 17:00:00 21.5 23 Sudeste 35 Este 0 -- -- 58
2019-09-15 16:00:00 20.8 17 Este 31 Sudeste 0 -- -- 59
2019-09-15 15:00:00 20.6 17 Sudeste 30 Este 0 -- -- 62
2019-09-15 14:00:00 19.8 17 Sudeste 34 Sudeste 0 -- -- 62
2019-09-15 13:00:00 19.9 14 Este 32 Sudeste 0 -- -- 66
2019-09-15 12:00:00 18.2 14 Sudeste 27 Sudeste 0 -- -- 74
2019-09-15 11:00:00 18.8 18 Sudeste 28 Sudeste 0 -- -- 69
2019-09-15 10:00:00 17 13 Sudeste 23 Sudeste 0 -- -- 67
2019-09-15 09:00:00 14.6 4 Sudeste 11 Sur 0 -- -- 63
2019-09-15 08:00:00 11.9 5 Sur 17 Sudeste 0 -- -- 68
2019-09-15 07:00:00 12.5 7 Sudeste 13 Sur 0 -- -- 64
2019-09-15 06:00:00 12.3 3 Sur 17 Sudeste 0 -- -- 64
2019-09-15 05:00:00 13.2 12 Sudeste 24 Sudeste 0 -- -- 63
2019-09-15 04:00:00 12.8 13 Sur 22 Sudeste 0 -- -- 66
2019-09-15 03:00:00 14.2 14 Sudeste 24 Sudeste 0 -- -- 62
2019-09-15 02:00:00 13.8 12 Sudeste 23 Sudeste 0 -- -- 65
2019-09-15 01:00:00 14.2 10 Sudeste 20 Sudeste 0 -- -- 65
2019-09-15 00:00:00 14.3 11 Sudeste 20 Sudeste 0 -- -- 63